sensor_id;sensor_type;location;lat;lon;timestamp;P1;durP1;ratioP1;P2;durP2;ratioP2
71910;SDS011;59783;52.232;5.170;2022-12-07T00:01:08;34.28;;;24.38;;
71910;SDS011;59783;52.232;5.170;2022-12-07T00:03:35;34.20;;;24.90;;
71910;SDS011;59783;52.232;5.170;2022-12-07T00:06:00;32.75;;;25.17;;
71910;SDS011;59783;52.232;5.170;2022-12-07T00:08:26;32.35;;;26.30;;
71910;SDS011;59783;52.232;5.170;2022-12-07T00:10:52;40.35;;;23.42;;
71910;SDS011;59783;52.232;5.170;2022-12-07T00:13:17;34.35;;;24.48;;
71910;SDS011;59783;52.232;5.170;2022-12-07T00:15:43;33.83;;;25.83;;
71910;SDS011;59783;52.232;5.170;2022-12-07T00:18:08;40.03;;;26.17;;
71910;SDS011;59783;52.232;5.170;2022-12-07T00:20:34;33.03;;;25.45;;
71910;SDS011;59783;52.232;5.170;2022-12-07T00:22:59;35.83;;;26.83;;
71910;SDS011;59783;52.232;5.170;2022-12-07T00:25:25;32.55;;;25.50;;
71910;SDS011;59783;52.232;5.170;2022-12-07T00:27:51;41.20;;;30.73;;
71910;SDS011;59783;52.232;5.170;2022-12-07T00:30:17;33.50;;;23.58;;
71910;SDS011;59783;52.232;5.170;2022-12-07T00:32:43;30.38;;;23.35;;
71910;SDS011;59783;52.232;5.170;2022-12-07T00:35:08;33.78;;;23.90;;
71910;SDS011;59783;52.232;5.170;2022-12-07T00:37:33;33.75;;;24.20;;
71910;SDS011;59783;52.232;5.170;2022-12-07T00:39:59;30.55;;;22.70;;
71910;SDS011;59783;52.232;5.170;2022-12-07T00:42:24;30.42;;;23.58;;
71910;SDS011;59783;52.232;5.170;2022-12-07T00:44:49;38.85;;;24.73;;
71910;SDS011;59783;52.232;5.170;2022-12-07T00:47:15;31.88;;;24.52;;
71910;SDS011;59783;52.232;5.170;2022-12-07T00:49:40;33.72;;;24.08;;
71910;SDS011;59783;52.232;5.170;2022-12-07T00:52:05;34.05;;;22.92;;
71910;SDS011;59783;52.232;5.170;2022-12-07T00:54:31;32.78;;;23.55;;
71910;SDS011;59783;52.232;5.170;2022-12-07T00:56:56;33.58;;;23.73;;
71910;SDS011;59783;52.232;5.170;2022-12-07T00:59:21;33.33;;;23.90;;
71910;SDS011;59783;52.232;5.170;2022-12-07T01:01:47;33.50;;;29.08;;
71910;SDS011;59783;52.232;5.170;2022-12-07T01:04:12;29.17;;;22.65;;
71910;SDS011;59783;52.232;5.170;2022-12-07T01:06:38;31.23;;;22.13;;
71910;SDS011;59783;52.232;5.170;2022-12-07T01:09:03;30.42;;;22.42;;
71910;SDS011;59783;52.232;5.170;2022-12-07T01:11:30;33.03;;;21.88;;
71910;SDS011;59783;52.232;5.170;2022-12-07T01:13:56;30.92;;;22.85;;
71910;SDS011;59783;52.232;5.170;2022-12-07T01:16:23;31.63;;;23.63;;
71910;SDS011;59783;52.232;5.170;2022-12-07T01:18:50;36.63;;;27.58;;
71910;SDS011;59783;52.232;5.170;2022-12-07T01:21:18;33.35;;;21.92;;
71910;SDS011;59783;52.232;5.170;2022-12-07T01:23:45;25.00;;;20.88;;
71910;SDS011;59783;52.232;5.170;2022-12-07T01:26:12;27.45;;;21.60;;
71910;SDS011;59783;52.232;5.170;2022-12-07T01:28:38;30.70;;;22.70;;
71910;SDS011;59783;52.232;5.170;2022-12-07T01:31:08;30.65;;;20.80;;
71910;SDS011;59783;52.232;5.170;2022-12-07T01:33:36;26.70;;;22.05;;
71910;SDS011;59783;52.232;5.170;2022-12-07T01:36:03;31.73;;;21.38;;
71910;SDS011;59783;52.232;5.170;2022-12-07T01:38:30;27.73;;;20.55;;
71910;SDS011;59783;52.232;5.170;2022-12-07T01:40:56;30.17;;;20.10;;
71910;SDS011;59783;52.232;5.170;2022-12-07T01:43:22;28.70;;;20.25;;
71910;SDS011;59783;52.232;5.170;2022-12-07T01:45:49;29.33;;;20.25;;
71910;SDS011;59783;52.232;5.170;2022-12-07T01:48:15;26.45;;;21.35;;
71910;SDS011;59783;52.232;5.170;2022-12-07T01:50:43;37.78;;;22.35;;
71910;SDS011;59783;52.232;5.170;2022-12-07T01:53:09;32.90;;;21.33;;
71910;SDS011;59783;52.232;5.170;2022-12-07T01:55:35;31.25;;;21.27;;
71910;SDS011;59783;52.232;5.170;2022-12-07T01:58:03;29.58;;;18.65;;
71910;SDS011;59783;52.232;5.170;2022-12-07T02:00:29;33.65;;;19.42;;
71910;SDS011;59783;52.232;5.170;2022-12-07T02:02:59;30.48;;;19.33;;
71910;SDS011;59783;52.232;5.170;2022-12-07T02:05:34;27.38;;;20.63;;
71910;SDS011;59783;52.232;5.170;2022-12-07T02:08:00;25.02;;;19.85;;
71910;SDS011;59783;52.232;5.170;2022-12-07T02:10:27;23.55;;;18.80;;
71910;SDS011;59783;52.232;5.170;2022-12-07T02:12:55;26.70;;;19.17;;
71910;SDS011;59783;52.232;5.170;2022-12-07T02:15:38;24.13;;;18.88;;
71910;SDS011;59783;52.232;5.170;2022-12-07T02:18:09;29.60;;;19.17;;
71910;SDS011;59783;52.232;5.170;2022-12-07T02:31:13;22.08;;;18.40;;
71910;SDS011;59783;52.232;5.170;2022-12-07T02:33:44;21.70;;;18.52;;
71910;SDS011;59783;52.232;5.170;2022-12-07T02:36:13;26.63;;;23.75;;
71910;SDS011;59783;52.232;5.170;2022-12-07T02:38:51;24.10;;;18.02;;
71910;SDS011;59783;52.232;5.170;2022-12-07T02:43:52;28.17;;;17.83;;
71910;SDS011;59783;52.232;5.170;2022-12-07T02:46:27;26.20;;;18.08;;
71910;SDS011;59783;52.232;5.170;2022-12-07T02:51:58;25.77;;;19.08;;
71910;SDS011;59783;52.232;5.170;2022-12-07T02:54:23;24.70;;;20.50;;
71910;SDS011;59783;52.232;5.170;2022-12-07T02:56:50;24.83;;;19.67;;
71910;SDS011;59783;52.232;5.170;2022-12-07T03:10:14;22.88;;;20.08;;
71910;SDS011;59783;52.232;5.170;2022-12-07T03:13:11;25.75;;;19.88;;
71910;SDS011;59783;52.232;5.170;2022-12-07T03:15:43;20.55;;;18.08;;
71910;SDS011;59783;52.232;5.170;2022-12-07T03:18:16;22.38;;;18.10;;
71910;SDS011;59783;52.232;5.170;2022-12-07T03:20:44;21.85;;;18.33;;
71910;SDS011;59783;52.232;5.170;2022-12-07T03:23:10;20.05;;;17.17;;
71910;SDS011;59783;52.232;5.170;2022-12-07T03:25:39;24.27;;;17.98;;
71910;SDS011;59783;52.232;5.170;2022-12-07T03:28:06;19.42;;;17.08;;
71910;SDS011;59783;52.232;5.170;2022-12-07T03:30:37;24.50;;;17.85;;
71910;SDS011;59783;52.232;5.170;2022-12-07T03:33:12;20.17;;;18.15;;
71910;SDS011;59783;52.232;5.170;2022-12-07T03:35:42;20.00;;;17.10;;
71910;SDS011;59783;52.232;5.170;2022-12-07T03:40:44;29.23;;;19.48;;
71910;SDS011;59783;52.232;5.170;2022-12-07T03:43:10;21.08;;;18.27;;
71910;SDS011;59783;52.232;5.170;2022-12-07T03:45:40;27.27;;;19.58;;
71910;SDS011;59783;52.232;5.170;2022-12-07T03:48:08;27.38;;;24.00;;
71910;SDS011;59783;52.232;5.170;2022-12-07T03:50:45;22.85;;;18.48;;
71910;SDS011;59783;52.232;5.170;2022-12-07T03:53:28;22.20;;;19.08;;
71910;SDS011;59783;52.232;5.170;2022-12-07T03:56:15;27.20;;;17.77;;
71910;SDS011;59783;52.232;5.170;2022-12-07T03:58:41;32.42;;;24.98;;
71910;SDS011;59783;52.232;5.170;2022-12-07T04:01:06;26.48;;;18.15;;
71910;SDS011;59783;52.232;5.170;2022-12-07T04:03:32;22.88;;;20.35;;
71910;SDS011;59783;52.232;5.170;2022-12-07T04:05:57;20.02;;;17.98;;
71910;SDS011;59783;52.232;5.170;2022-12-07T04:08:23;21.35;;;17.48;;
71910;SDS011;59783;52.232;5.170;2022-12-07T04:10:49;20.50;;;17.33;;
71910;SDS011;59783;52.232;5.170;2022-12-07T04:13:15;19.98;;;16.95;;
71910;SDS011;59783;52.232;5.170;2022-12-07T04:15:40;25.40;;;17.92;;
71910;SDS011;59783;52.232;5.170;2022-12-07T04:18:05;22.23;;;18.13;;
71910;SDS011;59783;52.232;5.170;2022-12-07T04:20:31;22.45;;;18.35;;
71910;SDS011;59783;52.232;5.170;2022-12-07T04:22:56;27.58;;;19.95;;
71910;SDS011;59783;52.232;5.170;2022-12-07T04:25:21;31.83;;;20.10;;
71910;SDS011;59783;52.232;5.170;2022-12-07T04:27:47;28.35;;;20.38;;
71910;SDS011;59783;52.232;5.170;2022-12-07T04:30:12;28.58;;;20.98;;
71910;SDS011;59783;52.232;5.170;2022-12-07T04:32:37;22.50;;;18.85;;
71910;SDS011;59783;52.232;5.170;2022-12-07T04:35:03;21.88;;;19.10;;
71910;SDS011;59783;52.232;5.170;2022-12-07T04:37:28;25.20;;;18.17;;
71910;SDS011;59783;52.232;5.170;2022-12-07T04:39:54;22.73;;;17.77;;
71910;SDS011;59783;52.232;5.170;2022-12-07T04:42:19;30.08;;;18.38;;
71910;SDS011;59783;52.232;5.170;2022-12-07T04:44:45;22.85;;;16.25;;
71910;SDS011;59783;52.232;5.170;2022-12-07T04:47:10;20.98;;;16.17;;
71910;SDS011;59783;52.232;5.170;2022-12-07T04:49:35;20.92;;;17.33;;
71910;SDS011;59783;52.232;5.170;2022-12-07T04:52:01;22.13;;;17.00;;
71910;SDS011;59783;52.232;5.170;2022-12-07T04:54:26;20.20;;;16.70;;
71910;SDS011;59783;52.232;5.170;2022-12-07T04:56:51;30.67;;;18.08;;
71910;SDS011;59783;52.232;5.170;2022-12-07T04:59:17;27.65;;;21.92;;
71910;SDS011;59783;52.232;5.170;2022-12-07T05:01:42;22.25;;;16.63;;
71910;SDS011;59783;52.232;5.170;2022-12-07T05:04:08;18.95;;;15.93;;
71910;SDS011;59783;52.232;5.170;2022-12-07T05:06:33;20.23;;;17.23;;
71910;SDS011;59783;52.232;5.170;2022-12-07T05:08:59;21.48;;;16.45;;
71910;SDS011;59783;52.232;5.170;2022-12-07T05:11:24;18.58;;;16.23;;
71910;SDS011;59783;52.232;5.170;2022-12-07T05:16:30;20.37;;;18.13;;
71910;SDS011;59783;52.232;5.170;2022-12-07T05:18:55;21.27;;;16.95;;
71910;SDS011;59783;52.232;5.170;2022-12-07T05:21:21;24.58;;;17.08;;
71910;SDS011;59783;52.232;5.170;2022-12-07T05:23:46;19.27;;;16.75;;
71910;SDS011;59783;52.232;5.170;2022-12-07T05:26:12;22.75;;;19.02;;
71910;SDS011;59783;52.232;5.170;2022-12-07T05:28:37;19.88;;;18.08;;
71910;SDS011;59783;52.232;5.170;2022-12-07T05:31:03;21.88;;;17.52;;
71910;SDS011;59783;52.232;5.170;2022-12-07T05:33:28;27.35;;;19.90;;
71910;SDS011;59783;52.232;5.170;2022-12-07T05:35:53;25.17;;;18.73;;
71910;SDS011;59783;52.232;5.170;2022-12-07T05:38:19;32.25;;;20.48;;
71910;SDS011;59783;52.232;5.170;2022-12-07T05:40:44;26.65;;;19.23;;
71910;SDS011;59783;52.232;5.170;2022-12-07T05:43:09;26.73;;;18.80;;
71910;SDS011;59783;52.232;5.170;2022-12-07T05:45:35;28.90;;;25.55;;
71910;SDS011;59783;52.232;5.170;2022-12-07T05:48:00;29.02;;;18.02;;
71910;SDS011;59783;52.232;5.170;2022-12-07T05:50:26;27.50;;;17.45;;
71910;SDS011;59783;52.232;5.170;2022-12-07T05:52:52;22.58;;;18.13;;
71910;SDS011;59783;52.232;5.170;2022-12-07T05:55:18;20.98;;;16.65;;
71910;SDS011;59783;52.232;5.170;2022-12-07T05:57:43;21.35;;;16.98;;
71910;SDS011;59783;52.232;5.170;2022-12-07T06:00:28;29.33;;;18.60;;
71910;SDS011;59783;52.232;5.170;2022-12-07T06:02:54;25.75;;;18.52;;
71910;SDS011;59783;52.232;5.170;2022-12-07T06:05:19;21.80;;;19.33;;
71910;SDS011;59783;52.232;5.170;2022-12-07T06:07:44;27.58;;;16.85;;
71910;SDS011;59783;52.232;5.170;2022-12-07T06:10:10;25.30;;;17.80;;
71910;SDS011;59783;52.232;5.170;2022-12-07T06:12:35;22.75;;;17.58;;
71910;SDS011;59783;52.232;5.170;2022-12-07T06:15:03;25.00;;;18.50;;
71910;SDS011;59783;52.232;5.170;2022-12-07T06:17:28;21.35;;;17.40;;
71910;SDS011;59783;52.232;5.170;2022-12-07T06:19:54;25.42;;;22.67;;
71910;SDS011;59783;52.232;5.170;2022-12-07T06:22:19;19.00;;;17.02;;
71910;SDS011;59783;52.232;5.170;2022-12-07T06:24:44;22.88;;;18.50;;
71910;SDS011;59783;52.232;5.170;2022-12-07T06:27:10;22.15;;;18.88;;
71910;SDS011;59783;52.232;5.170;2022-12-07T06:29:35;21.00;;;18.60;;
71910;SDS011;59783;52.232;5.170;2022-12-07T06:32:01;23.88;;;18.35;;
71910;SDS011;59783;52.232;5.170;2022-12-07T06:34:27;27.45;;;19.58;;
71910;SDS011;59783;52.232;5.170;2022-12-07T06:36:53;19.65;;;17.60;;
71910;SDS011;59783;52.232;5.170;2022-12-07T06:39:23;26.13;;;19.38;;
71910;SDS011;59783;52.232;5.170;2022-12-07T06:41:50;28.42;;;18.08;;
71910;SDS011;59783;52.232;5.170;2022-12-07T06:44:19;27.58;;;19.17;;
71910;SDS011;59783;52.232;5.170;2022-12-07T06:46:45;24.67;;;17.98;;
71910;SDS011;59783;52.232;5.170;2022-12-07T06:49:10;28.00;;;19.15;;
71910;SDS011;59783;52.232;5.170;2022-12-07T06:51:36;32.85;;;19.85;;
71910;SDS011;59783;52.232;5.170;2022-12-07T06:54:05;24.00;;;18.50;;
71910;SDS011;59783;52.232;5.170;2022-12-07T06:56:31;26.85;;;18.65;;
71910;SDS011;59783;52.232;5.170;2022-12-07T06:58:57;25.65;;;20.98;;
71910;SDS011;59783;52.232;5.170;2022-12-07T07:01:22;22.50;;;18.58;;
71910;SDS011;59783;52.232;5.170;2022-12-07T07:03:47;22.73;;;19.88;;
71910;SDS011;59783;52.232;5.170;2022-12-07T07:06:13;28.45;;;19.77;;
71910;SDS011;59783;52.232;5.170;2022-12-07T07:08:38;23.95;;;19.40;;
71910;SDS011;59783;52.232;5.170;2022-12-07T07:11:04;23.35;;;18.77;;
71910;SDS011;59783;52.232;5.170;2022-12-07T07:13:31;20.65;;;18.40;;
71910;SDS011;59783;52.232;5.170;2022-12-07T07:15:57;23.15;;;19.00;;
71910;SDS011;59783;52.232;5.170;2022-12-07T07:18:22;24.17;;;19.95;;
71910;SDS011;59783;52.232;5.170;2022-12-07T07:20:49;22.75;;;20.30;;
71910;SDS011;59783;52.232;5.170;2022-12-07T07:23:15;28.35;;;19.23;;
71910;SDS011;59783;52.232;5.170;2022-12-07T07:25:40;33.47;;;21.50;;
71910;SDS011;59783;52.232;5.170;2022-12-07T07:28:06;32.38;;;21.75;;
71910;SDS011;59783;52.232;5.170;2022-12-07T07:30:31;27.38;;;22.73;;
71910;SDS011;59783;52.232;5.170;2022-12-07T07:33:05;30.85;;;24.33;;
71910;SDS011;59783;52.232;5.170;2022-12-07T07:35:32;26.30;;;22.77;;
71910;SDS011;59783;52.232;5.170;2022-12-07T07:37:58;35.83;;;25.45;;
71910;SDS011;59783;52.232;5.170;2022-12-07T07:40:23;30.17;;;24.08;;
71910;SDS011;59783;52.232;5.170;2022-12-07T07:42:49;38.20;;;26.25;;
71910;SDS011;59783;52.232;5.170;2022-12-07T07:45:16;31.05;;;24.92;;
71910;SDS011;59783;52.232;5.170;2022-12-07T07:47:42;36.75;;;22.95;;
71910;SDS011;59783;52.232;5.170;2022-12-07T07:50:07;34.17;;;29.17;;
71910;SDS011;59783;52.232;5.170;2022-12-07T07:52:33;35.95;;;23.55;;
71910;SDS011;59783;52.232;5.170;2022-12-07T07:54:58;31.83;;;23.92;;
71910;SDS011;59783;52.232;5.170;2022-12-07T07:57:24;32.17;;;23.35;;
71910;SDS011;59783;52.232;5.170;2022-12-07T07:59:49;40.83;;;26.52;;
71910;SDS011;59783;52.232;5.170;2022-12-07T08:02:15;36.58;;;22.88;;
71910;SDS011;59783;52.232;5.170;2022-12-07T08:04:42;30.70;;;22.67;;
71910;SDS011;59783;52.232;5.170;2022-12-07T08:07:08;39.50;;;22.98;;
71910;SDS011;59783;52.232;5.170;2022-12-07T08:09:33;37.40;;;22.20;;
71910;SDS011;59783;52.232;5.170;2022-12-07T08:11:58;26.15;;;21.05;;
71910;SDS011;59783;52.232;5.170;2022-12-07T08:14:24;28.38;;;24.55;;
71910;SDS011;59783;52.232;5.170;2022-12-07T08:16:49;32.88;;;21.38;;
71910;SDS011;59783;52.232;5.170;2022-12-07T08:19:15;27.05;;;19.98;;
71910;SDS011;59783;52.232;5.170;2022-12-07T08:21:40;24.50;;;21.65;;
71910;SDS011;59783;52.232;5.170;2022-12-07T08:24:06;24.83;;;19.27;;
71910;SDS011;59783;52.232;5.170;2022-12-07T08:26:32;35.08;;;22.67;;
71910;SDS011;59783;52.232;5.170;2022-12-07T08:28:57;27.27;;;20.67;;
71910;SDS011;59783;52.232;5.170;2022-12-07T08:31:22;26.45;;;20.38;;
71910;SDS011;59783;52.232;5.170;2022-12-07T08:33:48;33.65;;;25.48;;
71910;SDS011;59783;52.232;5.170;2022-12-07T08:36:14;29.92;;;22.75;;
71910;SDS011;59783;52.232;5.170;2022-12-07T08:38:40;26.08;;;20.50;;
71910;SDS011;59783;52.232;5.170;2022-12-07T08:41:06;26.88;;;20.63;;
71910;SDS011;59783;52.232;5.170;2022-12-07T08:43:32;26.33;;;20.48;;
71910;SDS011;59783;52.232;5.170;2022-12-07T08:46:21;31.30;;;19.50;;
71910;SDS011;59783;52.232;5.170;2022-12-07T08:48:52;26.92;;;20.80;;
71910;SDS011;59783;52.232;5.170;2022-12-07T08:51:22;31.50;;;28.27;;
71910;SDS011;59783;52.232;5.170;2022-12-07T08:53:48;22.45;;;19.60;;
71910;SDS011;59783;52.232;5.170;2022-12-07T08:56:14;27.40;;;21.75;;
71910;SDS011;59783;52.232;5.170;2022-12-07T08:58:39;37.83;;;20.27;;
71910;SDS011;59783;52.232;5.170;2022-12-07T09:01:05;24.13;;;20.35;;
71910;SDS011;59783;52.232;5.170;2022-12-07T09:03:31;28.58;;;20.60;;
71910;SDS011;59783;52.232;5.170;2022-12-07T09:05:56;24.55;;;18.13;;
71910;SDS011;59783;52.232;5.170;2022-12-07T09:08:22;25.95;;;20.15;;
71910;SDS011;59783;52.232;5.170;2022-12-07T09:10:52;22.33;;;19.95;;
71910;SDS011;59783;52.232;5.170;2022-12-07T09:13:17;27.30;;;24.45;;
71910;SDS011;59783;52.232;5.170;2022-12-07T09:15:42;23.65;;;20.27;;
71910;SDS011;59783;52.232;5.170;2022-12-07T09:18:08;23.42;;;19.13;;
71910;SDS011;59783;52.232;5.170;2022-12-07T09:20:33;26.70;;;19.83;;
71910;SDS011;59783;52.232;5.170;2022-12-07T09:22:58;23.20;;;20.23;;
71910;SDS011;59783;52.232;5.170;2022-12-07T09:25:24;22.33;;;20.15;;
71910;SDS011;59783;52.232;5.170;2022-12-07T09:27:54;24.98;;;19.70;;
71910;SDS011;59783;52.232;5.170;2022-12-07T09:30:20;22.73;;;18.83;;
71910;SDS011;59783;52.232;5.170;2022-12-07T09:32:46;27.65;;;20.27;;
71910;SDS011;59783;52.232;5.170;2022-12-07T09:35:11;25.27;;;20.88;;
71910;SDS011;59783;52.232;5.170;2022-12-07T09:37:36;23.08;;;20.00;;
71910;SDS011;59783;52.232;5.170;2022-12-07T09:40:02;21.65;;;19.20;;
71910;SDS011;59783;52.232;5.170;2022-12-07T09:42:34;29.70;;;20.35;;
71910;SDS011;59783;52.232;5.170;2022-12-07T09:45:01;29.15;;;19.33;;
71910;SDS011;59783;52.232;5.170;2022-12-07T09:47:28;22.10;;;19.42;;
71910;SDS011;59783;52.232;5.170;2022-12-07T09:49:55;21.70;;;18.85;;
71910;SDS011;59783;52.232;5.170;2022-12-07T09:52:26;23.88;;;18.23;;
71910;SDS011;59783;52.232;5.170;2022-12-07T09:54:53;21.42;;;19.17;;
71910;SDS011;59783;52.232;5.170;2022-12-07T09:57:20;21.98;;;18.90;;
71910;SDS011;59783;52.232;5.170;2022-12-07T09:59:55;20.88;;;18.67;;
71910;SDS011;59783;52.232;5.170;2022-12-07T10:02:29;22.35;;;19.08;;
71910;SDS011;59783;52.232;5.170;2022-12-07T10:05:03;22.67;;;20.38;;
71910;SDS011;59783;52.232;5.170;2022-12-07T10:07:32;22.75;;;20.20;;
71910;SDS011;59783;52.232;5.170;2022-12-07T10:09:57;22.25;;;20.05;;
71910;SDS011;59783;52.232;5.170;2022-12-07T10:12:22;21.85;;;19.58;;
71910;SDS011;59783;52.232;5.170;2022-12-07T10:15:01;25.02;;;19.55;;
71910;SDS011;59783;52.232;5.170;2022-12-07T10:25:26;22.73;;;19.17;;
71910;SDS011;59783;52.232;5.170;2022-12-07T10:32:59;28.63;;;25.05;;
71910;SDS011;59783;52.232;5.170;2022-12-07T10:35:28;34.70;;;20.67;;
71910;SDS011;59783;52.232;5.170;2022-12-07T10:37:56;30.70;;;20.58;;
71910;SDS011;59783;52.232;5.170;2022-12-07T10:43:05;23.50;;;18.80;;
71910;SDS011;59783;52.232;5.170;2022-12-07T10:45:44;23.08;;;17.15;;
71910;SDS011;59783;52.232;5.170;2022-12-07T10:54:02;30.58;;;21.98;;
71910;SDS011;59783;52.232;5.170;2022-12-07T11:09:57;25.95;;;19.08;;
71910;SDS011;59783;52.232;5.170;2022-12-07T11:15:24;21.30;;;18.13;;
71910;SDS011;59783;52.232;5.170;2022-12-07T11:18:12;27.48;;;18.92;;
71910;SDS011;59783;52.232;5.170;2022-12-07T11:31:41;21.70;;;17.52;;
71910;SDS011;59783;52.232;5.170;2022-12-07T11:34:32;30.90;;;19.55;;
71910;SDS011;59783;52.232;5.170;2022-12-07T11:37:01;29.02;;;21.25;;
71910;SDS011;59783;52.232;5.170;2022-12-07T11:39:35;24.85;;;19.23;;
71910;SDS011;59783;52.232;5.170;2022-12-07T11:42:06;26.70;;;19.77;;
71910;SDS011;59783;52.232;5.170;2022-12-07T11:47:20;21.00;;;17.35;;
71910;SDS011;59783;52.232;5.170;2022-12-07T11:54:48;21.08;;;18.77;;
71910;SDS011;59783;52.232;5.170;2022-12-07T11:57:20;29.55;;;19.52;;
71910;SDS011;59783;52.232;5.170;2022-12-07T11:59:52;28.27;;;18.27;;
71910;SDS011;59783;52.232;5.170;2022-12-07T12:02:23;26.52;;;19.58;;
71910;SDS011;59783;52.232;5.170;2022-12-07T12:07:27;24.52;;;18.33;;
71910;SDS011;59783;52.232;5.170;2022-12-07T12:09:58;24.98;;;17.45;;
71910;SDS011;59783;52.232;5.170;2022-12-07T12:15:47;24.27;;;18.23;;
71910;SDS011;59783;52.232;5.170;2022-12-07T12:21:00;22.55;;;19.67;;
71910;SDS011;59783;52.232;5.170;2022-12-07T12:25:58;22.50;;;17.23;;
71910;SDS011;59783;52.232;5.170;2022-12-07T12:28:41;20.00;;;18.10;;
71910;SDS011;59783;52.232;5.170;2022-12-07T12:33:52;22.08;;;17.30;;
71910;SDS011;59783;52.232;5.170;2022-12-07T12:51:43;18.00;;;16.30;;
71910;SDS011;59783;52.232;5.170;2022-12-07T12:56:46;19.60;;;17.67;;
71910;SDS011;59783;52.232;5.170;2022-12-07T12:59:29;19.15;;;17.35;;
71910;SDS011;59783;52.232;5.170;2022-12-07T13:04:51;22.73;;;17.40;;
71910;SDS011;59783;52.232;5.170;2022-12-07T13:15:36;19.85;;;17.75;;
71910;SDS011;59783;52.232;5.170;2022-12-07T13:20:40;20.67;;;18.57;;
71910;SDS011;59783;52.232;5.170;2022-12-07T13:23:09;20.52;;;18.42;;
71910;SDS011;59783;52.232;5.170;2022-12-07T13:25:45;19.90;;;16.73;;
71910;SDS011;59783;52.232;5.170;2022-12-07T13:28:18;19.60;;;17.55;;
71910;SDS011;59783;52.232;5.170;2022-12-07T13:30:54;20.45;;;17.60;;
71910;SDS011;59783;52.232;5.170;2022-12-07T13:33:26;23.60;;;17.48;;
71910;SDS011;59783;52.232;5.170;2022-12-07T13:35:56;19.67;;;17.60;;
71910;SDS011;59783;52.232;5.170;2022-12-07T13:38:27;29.33;;;19.25;;
71910;SDS011;59783;52.232;5.170;2022-12-07T13:41:13;24.63;;;16.70;;
71910;SDS011;59783;52.232;5.170;2022-12-07T13:46:17;18.60;;;16.90;;
71910;SDS011;59783;52.232;5.170;2022-12-07T13:48:46;19.00;;;17.10;;
71910;SDS011;59783;52.232;5.170;2022-12-07T13:51:17;18.75;;;16.58;;
71910;SDS011;59783;52.232;5.170;2022-12-07T13:53:53;19.60;;;16.20;;
71910;SDS011;59783;52.232;5.170;2022-12-07T13:56:26;19.08;;;15.48;;
71910;SDS011;59783;52.232;5.170;2022-12-07T13:58:58;17.75;;;15.90;;
71910;SDS011;59783;52.232;5.170;2022-12-07T14:01:24;20.42;;;18.52;;
71910;SDS011;59783;52.232;5.170;2022-12-07T14:03:49;18.40;;;16.38;;
71910;SDS011;59783;52.232;5.170;2022-12-07T14:06:22;20.50;;;16.95;;
71910;SDS011;59783;52.232;5.170;2022-12-07T14:09:08;21.60;;;16.42;;
71910;SDS011;59783;52.232;5.170;2022-12-07T14:11:40;22.50;;;18.00;;
71910;SDS011;59783;52.232;5.170;2022-12-07T14:14:05;20.13;;;18.20;;
71910;SDS011;59783;52.232;5.170;2022-12-07T14:16:35;29.55;;;18.23;;
71910;SDS011;59783;52.232;5.170;2022-12-07T14:19:05;21.83;;;18.63;;
71910;SDS011;59783;52.232;5.170;2022-12-07T14:22:08;20.40;;;18.45;;
71910;SDS011;59783;52.232;5.170;2022-12-07T14:24:43;18.92;;;16.88;;
71910;SDS011;59783;52.232;5.170;2022-12-07T14:27:22;22.10;;;17.65;;
71910;SDS011;59783;52.232;5.170;2022-12-07T14:29:50;20.88;;;17.35;;
71910;SDS011;59783;52.232;5.170;2022-12-07T14:32:21;19.20;;;17.48;;
71910;SDS011;59783;52.232;5.170;2022-12-07T14:35:07;18.70;;;16.80;;
71910;SDS011;59783;52.232;5.170;2022-12-07T14:37:35;18.20;;;16.50;;
71910;SDS011;59783;52.232;5.170;2022-12-07T14:40:01;18.48;;;16.65;;
71910;SDS011;59783;52.232;5.170;2022-12-07T14:42:27;21.88;;;16.83;;
71910;SDS011;59783;52.232;5.170;2022-12-07T14:44:54;17.35;;;15.55;;
71910;SDS011;59783;52.232;5.170;2022-12-07T14:47:19;17.60;;;15.32;;
71910;SDS011;59783;52.232;5.170;2022-12-07T14:49:45;22.30;;;16.80;;
71910;SDS011;59783;52.232;5.170;2022-12-07T14:52:14;17.45;;;15.75;;
71910;SDS011;59783;52.232;5.170;2022-12-07T14:54:47;19.23;;;15.48;;
71910;SDS011;59783;52.232;5.170;2022-12-07T14:57:13;20.88;;;15.50;;
71910;SDS011;59783;52.232;5.170;2022-12-07T14:59:38;18.25;;;15.38;;
71910;SDS011;59783;52.232;5.170;2022-12-07T15:02:04;22.15;;;19.73;;
71910;SDS011;59783;52.232;5.170;2022-12-07T15:04:30;17.58;;;15.60;;
71910;SDS011;59783;52.232;5.170;2022-12-07T15:06:56;17.08;;;15.30;;
71910;SDS011;59783;52.232;5.170;2022-12-07T15:09:22;19.73;;;16.88;;
71910;SDS011;59783;52.232;5.170;2022-12-07T15:11:47;22.90;;;20.73;;
71910;SDS011;59783;52.232;5.170;2022-12-07T15:14:13;23.00;;;16.33;;
71910;SDS011;59783;52.232;5.170;2022-12-07T15:16:40;17.60;;;15.85;;
71910;SDS011;59783;52.232;5.170;2022-12-07T15:19:17;18.58;;;16.10;;
71910;SDS011;59783;52.232;5.170;2022-12-07T15:21:44;17.23;;;15.52;;
71910;SDS011;59783;52.232;5.170;2022-12-07T15:24:10;18.02;;;16.23;;
71910;SDS011;59783;52.232;5.170;2022-12-07T15:26:37;17.58;;;15.85;;
71910;SDS011;59783;52.232;5.170;2022-12-07T15:29:03;22.08;;;20.13;;
71910;SDS011;59783;52.232;5.170;2022-12-07T15:31:29;22.55;;;16.40;;
71910;SDS011;59783;52.232;5.170;2022-12-07T15:33:54;17.92;;;15.38;;
71910;SDS011;59783;52.232;5.170;2022-12-07T15:36:21;18.20;;;16.30;;
71910;SDS011;59783;52.232;5.170;2022-12-07T15:38:47;22.02;;;16.75;;
71910;SDS011;59783;52.232;5.170;2022-12-07T15:41:13;19.30;;;17.20;;
71910;SDS011;59783;52.232;5.170;2022-12-07T15:43:38;18.60;;;16.52;;
71910;SDS011;59783;52.232;5.170;2022-12-07T15:46:37;20.80;;;15.82;;
71910;SDS011;59783;52.232;5.170;2022-12-07T15:49:04;20.73;;;16.33;;
71910;SDS011;59783;52.232;5.170;2022-12-07T15:51:32;23.25;;;16.98;;
71910;SDS011;59783;52.232;5.170;2022-12-07T15:53:58;19.90;;;17.25;;
71910;SDS011;59783;52.232;5.170;2022-12-07T15:56:23;27.77;;;17.42;;
71910;SDS011;59783;52.232;5.170;2022-12-07T15:58:49;27.60;;;19.63;;
71910;SDS011;59783;52.232;5.170;2022-12-07T16:01:15;21.48;;;18.90;;
71910;SDS011;59783;52.232;5.170;2022-12-07T16:03:42;21.80;;;18.02;;
71910;SDS011;59783;52.232;5.170;2022-12-07T16:06:08;19.35;;;17.40;;
71910;SDS011;59783;52.232;5.170;2022-12-07T16:08:34;19.50;;;17.70;;
71910;SDS011;59783;52.232;5.170;2022-12-07T16:10:59;21.70;;;17.40;;
71910;SDS011;59783;52.232;5.170;2022-12-07T16:13:25;22.38;;;16.75;;
71910;SDS011;59783;52.232;5.170;2022-12-07T16:15:50;22.40;;;16.38;;
71910;SDS011;59783;52.232;5.170;2022-12-07T16:18:15;22.42;;;16.65;;
71910;SDS011;59783;52.232;5.170;2022-12-07T16:20:41;20.60;;;18.35;;
71910;SDS011;59783;52.232;5.170;2022-12-07T16:23:06;21.35;;;19.05;;
71910;SDS011;59783;52.232;5.170;2022-12-07T16:25:32;25.52;;;19.25;;
71910;SDS011;59783;52.232;5.170;2022-12-07T16:27:57;21.98;;;19.17;;
71910;SDS011;59783;52.232;5.170;2022-12-07T16:30:23;26.52;;;18.60;;
71910;SDS011;59783;52.232;5.170;2022-12-07T16:32:50;31.13;;;28.02;;
71910;SDS011;59783;52.232;5.170;2022-12-07T16:35:25;24.17;;;19.13;;
71910;SDS011;59783;52.232;5.170;2022-12-07T16:37:50;22.27;;;19.23;;
71910;SDS011;59783;52.232;5.170;2022-12-07T16:40:15;23.98;;;18.40;;
71910;SDS011;59783;52.232;5.170;2022-12-07T16:42:41;22.05;;;18.88;;